Weather at Fort McDowell East Garrison Heliport [CLOSED]

Public forecast

Using degrees Fahrenheit for public forecast. Weather courtesy of forecast.io.

Closest aviation weather report (METAR) to Fort McDowell East Garrison Heliport

Closest report is Metropolitan Oakland International Airport, 12.7 nm (23.6 km) SE.

2024/06/20 21:53 (retrieved 18 minutes ago)

KOAK 202153Z 29013KT 10SM FEW010 BKN250 17/10 A2987 RMK AO2 SLP115 T01720100

Closest aviation forecast (TAF) to Fort McDowell East Garrison Heliport

Closest forecast is Metropolitan Oakland International Airport, 12.7 nm (23.6 km) SE.

2024/06/20 18:42 (retrieved 3 hours ago)

TAF KOAK 201738Z 2018/2124 28012G20KT P6SM SKC FM210200 27012G20KT P6SM BKN010 FM210700 26006KT P6SM OVC007 FM211700 28011G18KT P6SM SKC